Time;durP1;ratioP1;P1;durP2;ratioP2;P2;SDS_P1;SDS_P2;PMS_P1;PMS_P2;Temp;Humidity;BMP_temperature;BMP_pressure;BME280_temperature;BME280_humidity;BME280_pressure;Samples;Min_cycle;Max_cycle;Signal;HPM_P1;HPM_P2
2021/10/07 00:02:03;;;;;;;1.37;1.37;;;;;;;10.33;96.20;97445.44;5053810;28;20548;-72
2021/10/07 00:04:30;;;;;;;1.60;1.50;;;;;;;10.41;95.98;97449.66;5054065;28;20204;-72
2021/10/07 00:06:55;;;;;;;2.17;1.40;;;;;;;10.33;96.49;97448.06;5053815;28;20201;-72
2021/10/07 00:09:21;;;;;;;1.77;1.60;;;;;;;10.37;95.93;97453.66;5052337;28;20549;-72
2021/10/07 00:11:47;;;;;;;1.60;1.50;;;;;;;10.35;96.24;97453.09;5070418;28;20217;-72
2021/10/07 00:14:12;;;;;;;3.07;1.63;;;;;;;10.50;95.86;97458.88;5072925;28;20181;-72
2021/10/07 00:16:38;;;;;;;3.90;1.37;;;;;;;10.59;95.56;97452.34;5073328;28;20192;-72
2021/10/07 00:19:03;;;;;;;2.20;1.57;;;;;;;10.61;94.94;97450.34;5073905;28;20216;-72
2021/10/07 00:21:29;;;;;;;2.80;1.40;;;;;;;10.54;95.30;97449.56;5073122;28;20193;-72
2021/10/07 00:24:11;;;;;;;1.60;1.50;;;;;;;10.51;95.52;97450.00;5072719;28;20230;-72
2021/10/07 00:26:40;;;;;;;1.70;1.20;;;;;;;10.34;96.43;97451.47;5073682;28;20327;-72
2021/10/07 00:31:58;;;;;;;1.77;1.60;;;;;;;10.37;96.46;97445.81;5072612;28;20180;-72
2021/10/07 00:34:37;;;;;;;6.03;1.80;;;;;;;10.40;96.34;97450.66;5073251;28;20169;-72
2021/10/07 00:39:31;;;;;;;2.00;1.60;;;;;;;10.46;96.12;97443.78;5068048;28;20576;-72
2021/10/07 00:41:56;;;;;;;1.87;1.43;;;;;;;10.31;96.79;97449.25;5072786;28;20193;-72
2021/10/07 00:44:23;;;;;;;5.50;2.00;;;;;;;10.30;96.99;97452.91;5055183;28;20715;-72
2021/10/07 00:46:59;;;;;;;2.37;1.70;;;;;;;10.30;96.90;97447.69;5073251;28;20181;-72
2021/10/07 00:49:26;;;;;;;1.57;1.47;;;;;;;10.40;96.46;97451.47;5073136;28;20184;-72
2021/10/07 00:51:52;;;;;;;4.00;1.90;;;;;;;10.57;95.24;97457.03;5054632;28;20251;-72
2021/10/07 00:54:21;;;;;;;1.43;1.33;;;;;;;10.49;95.32;97446.75;5072846;28;20215;-72
2021/10/07 00:56:47;;;;;;;4.90;1.60;;;;;;;10.39;95.95;97447.22;5072749;28;20178;-72
2021/10/07 00:59:13;;;;;;;1.70;1.53;;;;;;;10.65;94.54;97455.94;5072637;28;20598;-72
2021/10/07 01:01:39;;;;;;;2.57;1.53;;;;;;;10.54;95.47;97460.03;5072844;28;20185;-72
2021/10/07 01:04:05;;;;;;;1.83;1.73;;;;;;;10.54;95.34;97460.03;5072062;28;20239;-72
2021/10/07 01:06:31;;;;;;;2.17;1.40;;;;;;;10.63;94.74;97458.81;5072497;28;20185;-72
2021/10/07 01:08:59;;;;;;;1.63;1.53;;;;;;;10.78;93.42;97461.94;5054274;28;20235;-72
2021/10/07 01:11:25;;;;;;;2.87;1.50;;;;;;;10.61;94.43;97466.06;5072311;28;20644;-72
2021/10/07 01:13:50;;;;;;;3.37;1.90;;;;;;;10.71;93.52;97463.78;5072308;28;20197;-72
2021/10/07 01:16:19;;;;;;;1.20;1.20;;;;;;;10.61;95.06;97452.16;5072829;28;20188;-72
2021/10/07 01:18:45;;;;;;;3.27;1.53;;;;;;;10.63;94.44;97464.06;5054161;28;20239;-72
2021/10/07 01:21:12;;;;;;;2.30;1.30;;;;;;;10.73;93.93;97458.34;5071855;28;20190;-72
2021/10/07 01:23:39;;;;;;;1.60;1.40;;;;;;;10.67;94.30;97461.81;5054504;28;20280;-72
2021/10/07 01:26:07;;;;;;;2.37;1.50;;;;;;;10.56;95.33;97459.84;5071859;28;20599;-72
2021/10/07 01:28:32;;;;;;;1.63;1.50;;;;;;;10.61;95.10;97466.06;5054348;28;20620;-72
2021/10/07 01:30:58;;;;;;;1.20;1.20;;;;;;;10.50;95.78;97474.59;5071779;28;20263;-72
2021/10/07 01:33:23;;;;;;;2.03;1.70;;;;;;;10.57;95.83;97472.75;5072321;28;20208;-72
2021/10/07 01:35:49;;;;;;;2.07;1.53;;;;;;;10.66;95.31;97465.44;5071923;28;20194;-72
2021/10/07 01:38:14;;;;;;;2.67;1.40;;;;;;;10.56;96.32;97467.72;5071519;28;20200;-72
2021/10/07 01:40:39;;;;;;;1.70;1.60;;;;;;;10.60;95.97;97469.69;5067596;28;20243;-72
2021/10/07 01:43:05;;;;;;;2.10;1.40;;;;;;;10.75;95.44;97464.19;5071689;28;20641;-72
2021/10/07 01:45:30;;;;;;;1.70;1.60;;;;;;;10.64;95.65;97470.91;5072407;28;20189;-72
2021/10/07 01:47:56;;;;;;;1.57;1.27;;;;;;;10.62;95.94;97467.69;5053996;28;20655;-72
2021/10/07 01:50:21;;;;;;;1.50;1.40;;;;;;;10.65;95.44;97463.81;5072014;28;20224;-72
2021/10/07 01:52:46;;;;;;;2.30;1.43;;;;;;;10.61;95.80;97466.06;5072303;28;20204;-72
2021/10/07 01:55:12;;;;;;;1.43;1.40;;;;;;;10.58;95.75;97465.69;5072015;28;20218;-72
2021/10/07 01:57:38;;;;;;;2.03;1.40;;;;;;;10.71;95.03;97465.59;5072090;28;20267;-72
2021/10/07 02:00:07;;;;;;;1.70;1.40;;;;;;;10.68;95.07;97466.84;5054227;28;20204;-72
2021/10/07 02:02:32;;;;;;;2.37;1.30;;;;;;;10.70;94.70;97470.03;5071885;28;20185;-72
2021/10/07 02:04:58;;;;;;;1.80;1.50;;;;;;;10.72;95.14;97475.09;5072435;28;20630;-72
2021/10/07 02:07:24;;;;;;;1.70;1.60;;;;;;;10.80;94.69;97470.41;5071883;28;20196;-72
2021/10/07 02:09:50;;;;;;;1.70;1.37;;;;;;;10.83;94.59;97477.84;5071995;28;20260;-72
2021/10/07 02:12:15;;;;;;;1.80;1.70;;;;;;;10.78;95.13;97472.44;5071576;28;20261;-72
2021/10/07 02:14:40;;;;;;;2.27;1.70;;;;;;;10.93;94.50;97471.31;5053898;28;20185;-72
2021/10/07 02:17:06;;;;;;;1.67;1.50;;;;;;;10.89;94.36;97478.00;5072327;28;20268;-72
2021/10/07 02:19:31;;;;;;;1.50;1.40;;;;;;;10.77;94.64;97472.63;5071914;28;20320;-72
2021/10/07 02:21:57;;;;;;;1.40;1.30;;;;;;;10.56;96.37;97465.91;5071992;28;20275;-72
2021/10/07 02:24:22;;;;;;;1.53;1.43;;;;;;;10.74;95.83;97458.13;5075227;28;20181;-72
2021/10/07 02:26:47;;;;;;;2.13;1.63;;;;;;;10.69;95.81;97465.03;5075932;28;20177;-72
2021/10/07 02:29:13;;;;;;;2.93;1.57;;;;;;;10.64;96.52;97470.91;5075424;28;20665;-72
2021/10/07 02:31:38;;;;;;;1.60;1.50;;;;;;;10.78;95.60;97461.13;5076202;28;20204;-72
2021/10/07 02:34:04;;;;;;;1.30;1.20;;;;;;;10.84;94.83;97457.66;5075366;28;20657;-72
2021/10/07 02:36:29;;;;;;;2.37;1.70;;;;;;;10.73;95.25;97463.59;5075645;28;20177;-73
2021/10/07 02:38:54;;;;;;;1.67;1.40;;;;;;;10.83;95.01;97466.53;5075167;28;20254;-73
2021/10/07 02:41:20;;;;;;;2.47;1.60;;;;;;;10.85;93.81;97472.41;5057386;28;20730;-73
2021/10/07 02:43:45;;;;;;;1.80;1.70;;;;;;;10.64;95.44;97470.91;5075735;28;20197;-72
2021/10/07 02:46:11;;;;;;;1.67;1.57;;;;;;;10.54;95.81;97474.97;5075011;28;20182;-72
2021/10/07 02:48:37;;;;;;;1.60;1.43;;;;;;;10.61;95.73;97475.75;5075039;28;20188;-73
2021/10/07 02:51:02;;;;;;;2.20;1.47;;;;;;;10.68;94.96;97474.72;5075563;28;20185;-72
2021/10/07 02:53:31;;;;;;;1.50;1.30;;;;;;;10.69;95.29;97475.50;5075346;28;20181;-72
2021/10/07 02:55:58;;;;;;;1.43;1.20;;;;;;;10.70;94.96;97477.13;5075283;28;20182;-72
2021/10/07 02:58:23;;;;;;;1.57;1.47;;;;;;;10.72;94.81;97475.88;5066704;28;20567;-72
2021/10/07 03:00:49;;;;;;;2.10;1.47;;;;;;;10.62;95.50;97477.34;5074863;28;20197;-72
2021/10/07 03:03:14;;;;;;;1.40;1.30;;;;;;;10.68;95.46;97479.16;5075730;28;20645;-72
2021/10/07 03:05:40;;;;;;;1.80;1.50;;;;;;;10.62;96.13;97480.78;5074777;28;20181;-72
2021/10/07 03:08:05;;;;;;;2.57;1.67;;;;;;;10.71;95.08;97481.34;5074563;28;20203;-72
2021/10/07 03:10:31;;;;;;;2.17;1.67;;;;;;;10.66;95.50;97484.59;5074987;28;20221;-72
2021/10/07 03:12:56;;;;;;;7.17;1.70;;;;;;;10.77;94.67;97494.41;5075069;28;20190;-72
2021/10/07 03:15:22;;;;;;;1.47;1.37;;;;;;;10.76;94.83;97492.00;5075050;28;20272;-72
2021/10/07 03:17:47;;;;;;;2.90;1.63;;;;;;;10.84;94.84;97499.63;5074858;28;20212;-72
2021/10/07 03:20:13;;;;;;;1.70;1.60;;;;;;;10.93;93.98;97492.31;5074726;28;20202;-72
2021/10/07 03:22:40;;;;;;;2.70;1.73;;;;;;;10.89;94.53;97499.00;5074923;28;20252;-72
2021/10/07 03:25:06;;;;;;;2.90;1.50;;;;;;;10.79;94.86;97499.47;5074628;28;20189;-72
2021/10/07 03:27:31;;;;;;;2.07;1.70;;;;;;;10.82;94.98;97499.03;5075196;28;20195;-72
2021/10/07 03:29:56;;;;;;;4.17;1.80;;;;;;;10.69;96.01;97499.09;5074687;28;20272;-72
2021/10/07 03:32:22;;;;;;;4.90;1.40;;;;;;;10.63;96.19;97499.94;5056302;28;20268;-72
2021/10/07 03:34:47;;;;;;;1.57;1.50;;;;;;;10.66;96.39;97494.28;5055215;28;20216;-72
2021/10/07 03:37:12;;;;;;;2.17;1.87;;;;;;;10.69;95.92;97499.91;5074189;28;20314;-72
2021/10/07 03:39:38;;;;;;;1.60;1.50;;;;;;;10.67;96.29;97494.06;5073900;28;20379;-72
2021/10/07 03:42:03;;;;;;;2.17;1.60;;;;;;;10.71;95.75;97507.56;5074433;28;20196;-72
2021/10/07 03:44:29;;;;;;;2.47;1.70;;;;;;;10.80;95.42;97504.50;5056515;28;20189;-72
2021/10/07 03:46:54;;;;;;;3.23;1.60;;;;;;;10.78;95.43;97509.13;5074412;28;20735;-72
2021/10/07 03:49:19;;;;;;;1.60;1.50;;;;;;;10.71;95.72;97508.34;5073436;28;20174;-72
2021/10/07 03:51:45;;;;;;;2.03;1.53;;;;;;;10.74;95.77;97509.78;5074228;28;20243;-72
2021/10/07 03:54:10;;;;;;;1.70;1.60;;;;;;;10.71;96.11;97515.41;5074052;28;20545;-73
2021/10/07 03:56:38;;;;;;;1.70;1.60;;;;;;;10.87;95.05;97514.94;5074485;28;20196;-72
2021/10/07 03:59:03;;;;;;;1.80;1.50;;;;;;;10.81;95.37;97524.44;5073544;28;20205;-73
2021/10/07 04:01:29;;;;;;;1.57;1.47;;;;;;;10.84;96.10;97517.97;5073630;28;20208;-72
2021/10/07 04:03:54;;;;;;;1.43;1.43;;;;;;;10.79;96.02;97520.44;5073988;28;20216;-72
2021/10/07 04:06:20;;;;;;;1.80;1.60;;;;;;;10.79;96.25;97513.38;5073732;28;20178;-72
2021/10/07 04:08:45;;;;;;;3.43;1.67;;;;;;;10.81;95.73;97513.16;5073683;28;20238;-72
2021/10/07 04:11:10;;;;;;;3.83;1.87;;;;;;;10.77;95.82;97510.16;5073660;28;20232;-72
2021/10/07 04:13:36;;;;;;;1.93;1.70;;;;;;;10.76;95.99;97516.41;5072594;28;20181;-72
2021/10/07 04:16:01;;;;;;;2.00;1.80;;;;;;;10.72;96.01;97524.91;5073521;28;20589;-72
2021/10/07 04:18:26;;;;;;;1.70;1.60;;;;;;;10.73;96.08;97527.31;5072908;28;20181;-72
2021/10/07 04:20:52;;;;;;;1.90;1.80;;;;;;;10.77;96.03;97523.25;5054854;28;20197;-72
2021/10/07 04:23:18;;;;;;;4.57;2.17;;;;;;;10.72;96.36;97530.94;5073315;28;20189;-72
2021/10/07 04:25:43;;;;;;;4.77;2.00;;;;;;;10.69;96.29;97526.13;5056756;28;20193;-72
2021/10/07 04:28:09;;;;;;;2.10;1.90;;;;;;;10.68;96.54;97528.97;5073870;28;20193;-72
2021/10/07 04:30:37;;;;;;;2.27;1.70;;;;;;;10.71;96.70;97531.16;5073359;28;20185;-72
2021/10/07 04:33:07;;;;;;;2.03;1.80;;;;;;;10.75;96.37;97538.41;5073351;28;20209;-72
2021/10/07 04:35:33;;;;;;;1.80;1.70;;;;;;;10.76;96.10;97531.31;5073327;28;20173;-72
2021/10/07 04:37:59;;;;;;;2.10;2.00;;;;;;;10.70;96.62;97534.81;5072604;28;20186;-72
2021/10/07 04:40:25;;;;;;;2.00;1.63;;;;;;;10.68;96.48;97532.38;5072574;28;20212;-72
2021/10/07 04:42:51;;;;;;;2.10;1.90;;;;;;;10.70;96.74;97538.22;5072965;28;20189;-72
2021/10/07 04:45:17;;;;;;;1.80;1.70;;;;;;;10.73;96.32;97539.63;5072769;28;20256;-72
2021/10/07 04:47:42;;;;;;;2.00;1.90;;;;;;;10.63;96.80;97531.41;5055112;28;20193;-72
2021/10/07 04:50:08;;;;;;;2.27;2.07;;;;;;;10.71;96.38;97537.19;5073299;28;20652;-72
2021/10/07 04:52:34;;;;;;;2.03;1.77;;;;;;;10.69;96.52;97541.88;5073249;28;20216;-72
2021/10/07 04:55:00;;;;;;;2.57;1.90;;;;;;;10.60;97.13;97550.16;5072891;28;20189;-72
2021/10/07 04:57:25;;;;;;;1.87;1.77;;;;;;;10.78;95.85;97548.47;5055065;28;20585;-72
2021/10/07 04:59:51;;;;;;;2.00;1.90;;;;;;;10.87;95.41;97554.25;5072910;28;20205;-72
2021/10/07 05:02:16;;;;;;;2.17;2.00;;;;;;;10.88;95.02;97561.13;5055096;28;20182;-72
2021/10/07 05:04:42;;;;;;;3.00;2.00;;;;;;;10.83;95.92;97553.88;5072711;28;20272;-72
2021/10/07 05:07:07;;;;;;;2.90;2.03;;;;;;;10.81;95.58;97561.16;5073290;28;20284;-72
2021/10/07 05:09:33;;;;;;;2.30;2.03;;;;;;;10.76;96.72;97565.41;5054901;28;20189;-72
2021/10/07 05:11:58;;;;;;;3.87;2.20;;;;;;;10.69;97.15;97575.94;5071800;28;20221;-72
2021/10/07 05:14:23;;;;;;;2.70;2.50;;;;;;;10.77;96.81;97569.66;5072640;28;20191;-72
2021/10/07 05:16:49;;;;;;;2.53;2.10;;;;;;;10.72;96.88;97567.66;5055080;28;20221;-72
2021/10/07 05:19:14;;;;;;;2.17;1.97;;;;;;;10.81;96.67;97573.47;5072536;28;20291;-72
2021/10/07 05:21:39;;;;;;;4.17;2.10;;;;;;;10.78;96.56;97566.03;5072637;28;20181;-72
2021/10/07 05:24:05;;;;;;;2.20;2.00;;;;;;;10.86;96.23;97565.00;5054489;28;20244;-72
2021/10/07 05:26:30;;;;;;;2.20;2.00;;;;;;;10.80;96.84;97572.69;5072911;28;20193;-73
2021/10/07 05:28:55;;;;;;;3.33;2.40;;;;;;;10.95;95.94;97576.84;5072400;28;20523;-71
2021/10/07 05:31:21;;;;;;;2.40;1.97;;;;;;;10.92;95.99;97578.06;5072163;28;20185;-70
2021/10/07 05:33:47;;;;;;;2.13;2.00;;;;;;;10.94;96.06;97576.03;5072324;28;20222;-70
2021/10/07 05:36:13;;;;;;;3.57;2.20;;;;;;;11.15;95.14;97590.66;5071910;28;20193;-70
2021/10/07 05:38:38;;;;;;;2.40;2.20;;;;;;;11.00;95.21;97585.69;5053866;28;20268;-70
2021/10/07 05:41:04;;;;;;;3.30;2.27;;;;;;;10.88;95.92;97591.78;5071721;28;20567;-70
2021/10/07 05:43:30;;;;;;;4.67;2.27;;;;;;;10.93;95.94;97600.63;5071935;28;20771;-70
2021/10/07 05:45:55;;;;;;;2.80;2.13;;;;;;;10.98;95.70;97600.03;5072366;28;20284;-70
2021/10/07 05:48:21;;;;;;;2.20;2.10;;;;;;;11.12;94.44;97598.94;5054564;28;20181;-70
2021/10/07 05:50:46;;;;;;;2.30;2.10;;;;;;;10.99;95.14;97605.06;5071591;28;20657;-70
2021/10/07 05:53:12;;;;;;;2.47;2.17;;;;;;;10.99;95.05;97601.63;5072220;28;20223;-70
2021/10/07 05:55:37;;;;;;;1.93;1.83;;;;;;;11.16;94.12;97603.56;5071811;28;20189;-70
2021/10/07 05:58:02;;;;;;;2.40;2.20;;;;;;;11.20;94.33;97603.97;5073623;28;20174;-70
2021/10/07 06:00:28;;;;;;;2.83;2.30;;;;;;;11.17;94.34;97607.00;5075864;28;20205;-70
2021/10/07 06:02:53;;;;;;;1.90;1.70;;;;;;;11.00;95.50;97601.44;5076182;28;20725;-70
2021/10/07 06:05:19;;;;;;;2.00;1.90;;;;;;;11.07;94.87;97610.09;5075555;28;20181;-69
2021/10/07 06:07:44;;;;;;;2.23;2.00;;;;;;;11.20;94.52;97612.63;5075532;28;20211;-71
2021/10/07 06:10:11;;;;;;;2.80;1.90;;;;;;;11.17;94.20;97613.06;5075423;28;20221;-72
2021/10/07 06:12:37;;;;;;;2.97;2.27;;;;;;;11.25;93.83;97620.69;5057350;28;20243;-71
2021/10/07 06:15:02;;;;;;;2.40;2.20;;;;;;;11.29;93.49;97610.56;5057956;28;20181;-70
2021/10/07 06:17:28;;;;;;;2.37;2.13;;;;;;;11.21;93.46;97611.63;5070609;28;20193;-71
2021/10/07 06:20:00;;;;;;;4.33;2.40;;;;;;;11.24;94.14;97615.66;5076057;28;20228;-71
2021/10/07 06:22:25;;;;;;;2.80;2.47;;;;;;;11.30;93.11;97611.38;5075179;28;20216;-73
2021/10/07 06:24:50;;;;;;;1.97;1.87;;;;;;;11.35;92.64;97617.59;5074565;28;20650;-72
2021/10/07 06:27:16;;;;;;;3.33;2.17;;;;;;;11.33;92.53;97622.25;5075093;28;20179;-70
2021/10/07 06:29:41;;;;;;;2.30;2.17;;;;;;;11.43;92.56;97625.22;5075385;28;20189;-70
2021/10/07 06:32:07;;;;;;;3.23;2.67;;;;;;;11.22;94.14;97625.53;5075835;28;20638;-70
2021/10/07 06:34:32;;;;;;;3.40;2.10;;;;;;;11.22;94.49;97628.97;5074765;28;20264;-71
2021/10/07 06:36:57;;;;;;;3.83;2.40;;;;;;;11.21;94.93;97624.72;5056968;28;20187;-71
2021/10/07 06:39:23;;;;;;;2.40;2.20;;;;;;;11.36;93.52;97628.91;5072586;28;20216;-72
2021/10/07 06:41:48;;;;;;;2.50;2.30;;;;;;;10.92;96.06;97637.59;5075564;28;20244;-68
2021/10/07 06:44:14;;;;;;;2.20;2.10;;;;;;;10.74;98.44;97633.00;5075235;28;20236;-68
2021/10/07 06:46:40;;;;;;;3.37;2.30;;;;;;;11.06;96.58;97633.88;5074327;28;20189;-68
2021/10/07 06:49:05;;;;;;;5.00;2.50;;;;;;;10.74;97.21;97631.19;5075374;28;20231;-68
2021/10/07 06:51:30;;;;;;;3.90;2.43;;;;;;;11.24;95.15;97629.56;5074790;28;20185;-69
2021/10/07 06:54:00;;;;;;;3.57;2.90;;;;;;;11.25;94.75;97630.38;5075569;28;20185;-70
2021/10/07 06:56:25;;;;;;;2.67;2.47;;;;;;;10.77;98.11;97629.97;5056995;28;20217;-68
2021/10/07 06:58:55;;;;;;;2.63;2.37;;;;;;;11.02;97.17;97633.50;5074824;28;20217;-68
2021/10/07 07:01:26;;;;;;;3.50;2.37;;;;;;;11.35;95.11;97629.94;5074559;28;20197;-68
2021/10/07 07:03:53;;;;;;;2.17;2.07;;;;;;;11.74;93.26;97642.03;5074388;28;20173;-70
2021/10/07 07:06:26;;;;;;;3.63;2.17;;;;;;;11.95;91.62;97633.78;5073198;28;20184;-70
2021/10/07 07:08:52;;;;;;;2.37;2.17;;;;;;;12.17;90.38;97645.53;5074719;28;20185;-70
2021/10/07 07:11:18;;;;;;;2.40;2.17;;;;;;;12.04;89.63;97649.06;5074410;28;20677;-70
2021/10/07 07:13:44;;;;;;;2.80;2.33;;;;;;;12.05;89.60;97655.94;5074216;28;20181;-70
2021/10/07 07:16:10;;;;;;;2.50;2.10;;;;;;;11.87;90.46;97649.84;5073528;28;20181;-71
2021/10/07 07:18:35;;;;;;;4.30;2.13;;;;;;;11.79;90.56;97652.69;5068651;28;20182;-70
2021/10/07 07:21:01;;;;;;;3.50;2.80;;;;;;;11.93;88.76;97662.09;5074200;28;20726;-70
2021/10/07 07:23:26;;;;;;;2.57;2.37;;;;;;;11.98;88.22;97657.03;5073978;28;20181;-70
2021/10/07 07:25:52;;;;;;;2.50;2.37;;;;;;;12.06;87.82;97659.38;5072482;28;20198;-70
2021/10/07 07:28:17;;;;;;;5.30;2.50;;;;;;;11.95;89.47;97668.75;5072801;28;20173;-70
2021/10/07 07:30:43;;;;;;;2.40;2.20;;;;;;;11.72;88.66;97654.53;5073970;28;20660;-70
2021/10/07 07:33:08;;;;;;;2.60;2.40;;;;;;;11.80;88.16;97663.00;5074351;28;20174;-70
2021/10/07 07:35:34;;;;;;;5.27;2.67;;;;;;;11.93;87.96;97659.47;5073103;28;20184;-69
2021/10/07 07:38:01;;;;;;;2.33;2.13;;;;;;;11.98;87.61;97670.16;5073293;28;20287;-69
2021/10/07 07:40:27;;;;;;;2.60;2.40;;;;;;;11.80;88.22;97672.69;5073185;28;20208;-69
2021/10/07 07:42:53;;;;;;;3.30;2.60;;;;;;;11.71;88.49;97660.78;5073379;28;20566;-69
2021/10/07 07:45:18;;;;;;;2.90;2.53;;;;;;;11.85;87.61;97657.09;5073658;28;20565;-69
2021/10/07 07:47:44;;;;;;;3.10;2.60;;;;;;;12.17;85.82;97663.94;5073129;28;20900;-69
2021/10/07 07:50:11;;;;;;;3.77;2.67;;;;;;;11.87;86.57;97669.00;5073142;28;20250;-70
2021/10/07 07:52:37;;;;;;;3.63;3.20;;;;;;;12.15;85.78;97665.97;5072878;28;20243;-69
2021/10/07 07:55:04;;;;;;;3.70;3.17;;;;;;;12.45;83.76;97668.75;5073236;28;20185;-69
2021/10/07 07:57:29;;;;;;;3.03;2.80;;;;;;;12.47;83.84;97678.03;5055974;28;20253;-69
2021/10/07 07:59:55;;;;;;;3.10;2.33;;;;;;;12.55;83.84;97671.69;5073569;28;20209;-69
2021/10/07 08:02:20;;;;;;;5.77;3.30;;;;;;;12.24;84.28;97683.09;5073993;28;20181;-69
2021/10/07 08:04:46;;;;;;;2.97;2.77;;;;;;;12.34;84.65;97686.03;5072375;28;20185;-69
2021/10/07 08:07:13;;;;;;;6.17;3.90;;;;;;;12.13;85.59;97680.34;5073949;28;20264;-69
2021/10/07 08:09:43;;;;;;;6.07;3.60;;;;;;;12.12;86.37;97681.38;5072727;28;20188;-69
2021/10/07 08:12:12;;;;;;;5.13;3.93;;;;;;;11.82;87.56;97689.84;5072968;28;20265;-69
2021/10/07 08:14:39;;;;;;;4.90;3.80;;;;;;;11.96;87.46;97680.06;5073547;28;20199;-69
2021/10/07 08:17:06;;;;;;;4.10;3.80;;;;;;;11.79;88.47;97692.91;5035748;28;20260;-69
2021/10/07 08:19:31;;;;;;;5.93;4.73;;;;;;;11.76;88.62;97697.78;5053924;28;20202;-69
2021/10/07 08:21:56;;;;;;;6.60;5.47;;;;;;;11.47;88.78;97691.25;5053413;28;20170;-69
2021/10/07 08:24:22;;;;;;;6.37;5.60;;;;;;;11.80;88.29;97688.47;5067382;28;20204;-70
2021/10/07 08:26:48;;;;;;;10.27;5.30;;;;;;;11.90;87.14;97697.47;5053945;28;20188;-69
2021/10/07 08:29:14;;;;;;;6.23;5.13;;;;;;;12.33;86.16;97696.75;5054880;28;20207;-69
2021/10/07 08:31:39;;;;;;;7.13;4.73;;;;;;;12.58;83.46;97702.81;5072200;28;20199;-69
2021/10/07 08:34:05;;;;;;;7.97;6.03;;;;;;;12.58;83.12;97702.00;5072724;28;20189;-69
2021/10/07 08:36:32;;;;;;;7.33;5.27;;;;;;;12.46;83.31;97699.28;5072004;28;20616;-70
2021/10/07 08:38:57;;;;;;;6.43;4.90;;;;;;;12.66;82.81;97702.53;5072478;28;20260;-70
2021/10/07 08:41:23;;;;;;;5.97;5.37;;;;;;;12.67;81.79;97704.13;5072140;28;20299;-69
2021/10/07 08:43:50;;;;;;;6.73;5.60;;;;;;;12.44;82.78;97701.31;5072720;28;20576;-69
2021/10/07 08:46:18;;;;;;;10.57;5.50;;;;;;;12.51;81.81;97707.31;5054271;28;20183;-70
2021/10/07 08:48:43;;;;;;;7.10;5.10;;;;;;;12.73;81.69;97713.78;5072706;28;20477;-69
2021/10/07 08:51:09;;;;;;;5.60;5.10;;;;;;;13.07;80.45;97715.06;5071318;28;20207;-69
2021/10/07 08:53:35;;;;;;;6.17;5.10;;;;;;;13.19;79.67;97710.72;5054368;28;20182;-69
2021/10/07 08:56:01;;;;;;;7.53;5.80;;;;;;;13.24;78.62;97710.06;5072039;28;20181;-69
2021/10/07 08:58:27;;;;;;;6.90;5.83;;;;;;;13.42;77.72;97707.41;5072267;28;20190;-69
2021/10/07 09:00:53;;;;;;;7.33;5.70;;;;;;;13.45;76.92;97706.97;5073131;28;20209;-69
2021/10/07 09:03:21;;;;;;;8.73;6.10;;;;;;;13.30;77.24;97709.19;5054848;28;20189;-69
2021/10/07 09:05:48;;;;;;;6.23;5.43;;;;;;;13.31;77.35;97710.78;5072377;28;20196;-71
2021/10/07 09:08:15;;;;;;;7.30;5.43;;;;;;;13.28;77.83;97709.38;5072570;28;20181;-69
2021/10/07 09:10:46;;;;;;;7.73;5.73;;;;;;;13.18;76.61;97718.81;5072253;28;20232;-69
2021/10/07 09:13:25;;;;;;;7.37;6.07;;;;;;;12.84;78.58;97715.72;5072617;28;20264;-69
2021/10/07 09:15:59;;;;;;;9.17;6.40;;;;;;;13.08;78.36;97718.50;5069018;28;20181;-69
2021/10/07 09:18:27;;;;;;;9.10;6.00;;;;;;;13.08;79.33;97716.69;5061852;28;20192;-69
2021/10/07 09:20:54;;;;;;;8.57;5.87;;;;;;;13.10;77.94;97714.63;5071995;28;20200;-69
2021/10/07 09:23:27;;;;;;;7.40;5.40;;;;;;;13.40;77.20;97716.53;5072208;28;20189;-69
2021/10/07 09:26:00;;;;;;;6.47;5.47;;;;;;;13.64;76.12;97721.72;5072098;28;20177;-68
2021/10/07 09:28:30;;;;;;;5.67;4.97;;;;;;;13.81;73.56;97721.09;5064305;28;20645;-69
2021/10/07 09:30:59;;;;;;;8.07;5.63;;;;;;;13.72;74.10;97723.22;5072333;28;20591;-71
2021/10/07 09:33:26;;;;;;;6.33;5.53;;;;;;;13.67;75.84;97725.72;5072068;28;20208;-70
2021/10/07 09:36:11;;;;;;;6.20;5.60;;;;;;;13.44;76.04;97729.03;5070751;28;20213;-69
2021/10/07 09:38:36;;;;;;;8.50;7.20;;;;;;;13.42;76.41;97722.41;5038858;28;20592;-69
2021/10/07 09:41:13;;;;;;;7.83;6.80;;;;;;;13.00;77.54;97724.84;5071751;28;20197;-69
2021/10/07 09:43:47;;;;;;;10.57;6.47;;;;;;;12.94;77.71;97728.34;5072444;28;20267;-69
2021/10/07 09:46:33;;;;;;;6.53;5.90;;;;;;;13.12;77.55;97724.97;5072397;28;20184;-69
2021/10/07 09:48:58;;;;;;;8.47;5.30;;;;;;;13.27;75.73;97726.22;5072228;28;20281;-69
2021/10/07 09:51:39;;;;;;;6.13;5.27;;;;;;;13.17;76.16;97725.91;5072425;28;20308;-69
2021/10/07 09:54:05;;;;;;;7.33;5.30;;;;;;;13.27;75.43;97717.50;5072277;28;20181;-69
2021/10/07 09:56:32;;;;;;;6.23;5.63;;;;;;;13.23;76.65;97718.97;5072208;28;20185;-68
2021/10/07 09:59:04;;;;;;;7.23;5.10;;;;;;;13.37;76.10;97720.44;5072535;28;20208;-68
2021/10/07 10:01:30;;;;;;;5.83;4.90;;;;;;;13.45;74.83;97717.50;5072204;28;20584;-70
2021/10/07 10:03:55;;;;;;;5.37;4.87;;;;;;;13.85;73.49;97724.88;5054177;28;20185;-69
2021/10/07 10:06:21;;;;;;;9.43;4.97;;;;;;;14.22;70.93;97713.16;5053636;28;20234;-71
2021/10/07 10:08:47;;;;;;;4.53;3.83;;;;;;;14.45;68.43;97715.06;5072177;28;20184;-69
2021/10/07 10:11:13;;;;;;;4.33;3.53;;;;;;;14.34;68.08;97713.19;5072212;28;20299;-69
2021/10/07 10:13:39;;;;;;;5.47;4.37;;;;;;;14.05;70.65;97707.75;5071592;28;20189;-68
2021/10/07 10:16:06;;;;;;;4.00;3.67;;;;;;;14.25;69.46;97711.94;5071383;28;20627;-68
2021/10/07 10:18:33;;;;;;;5.37;4.47;;;;;;;13.89;70.62;97703.13;5054182;28;20652;-68
2021/10/07 10:21:04;;;;;;;4.30;3.67;;;;;;;13.99;70.72;97708.63;5072131;28;21031;-69
2021/10/07 10:23:32;;;;;;;4.83;4.03;;;;;;;14.22;69.58;97710.53;5070842;28;20180;-69
2021/10/07 10:26:06;;;;;;;6.00;4.87;;;;;;;13.90;71.18;97709.19;5071439;28;20656;-68
2021/10/07 10:28:49;;;;;;;6.10;4.50;;;;;;;14.08;70.85;97706.50;5053764;28;20182;-68
2021/10/07 10:31:16;;;;;;;5.23;3.90;;;;;;;14.62;68.70;97709.91;5056671;28;20178;-68
2021/10/07 10:33:45;;;;;;;4.13;3.70;;;;;;;14.25;68.85;97710.09;5069927;28;20181;-69
2021/10/07 10:36:35;;;;;;;5.63;3.97;;;;;;;14.17;68.69;97718.31;5053500;28;20543;-69
2021/10/07 10:39:09;;;;;;;4.27;3.70;;;;;;;14.25;68.95;97715.38;5068074;28;20188;-69
2021/10/07 10:41:58;;;;;;;6.40;3.80;;;;;;;14.28;68.68;97720.19;5070721;28;20193;-70
2021/10/07 10:44:26;;;;;;;4.63;3.40;;;;;;;14.24;68.22;97724.31;5067306;28;20553;-69
2021/10/07 10:47:18;;;;;;;4.70;3.27;;;;;;;14.11;68.87;97727.94;5074975;28;20189;-68
2021/10/07 10:49:46;;;;;;;3.90;3.50;;;;;;;14.63;67.94;97724.72;5074719;28;20259;-69
2021/10/07 10:52:22;;;;;;;4.63;3.73;;;;;;;14.19;68.47;97718.09;5066386;28;20189;-69
2021/10/07 10:54:50;;;;;;;8.97;3.87;;;;;;;14.62;67.72;97717.84;5064777;28;20177;-68
2021/10/07 10:57:38;;;;;;;4.03;3.63;;;;;;;14.66;67.64;97721.63;5072381;28;20177;-69
2021/10/07 11:00:14;;;;;;;4.57;3.50;;;;;;;14.61;67.91;97716.22;5074370;28;20669;-68
2021/10/07 11:02:47;;;;;;;3.93;3.20;;;;;;;14.13;68.78;97717.97;5070533;28;20657;-68
2021/10/07 11:05:25;;;;;;;3.70;3.37;;;;;;;14.13;69.91;97719.81;5067864;28;20205;-68
2021/10/07 11:08:09;;;;;;;3.70;3.40;;;;;;;13.91;69.35;97718.72;5068906;28;20208;-69
2021/10/07 11:10:49;;;;;;;4.17;3.60;;;;;;;14.89;66.94;97722.41;5071168;28;20733;-68
2021/10/07 11:13:19;;;;;;;3.57;3.27;;;;;;;14.73;66.67;97728.41;5069023;28;20174;-68
2021/10/07 11:15:59;;;;;;;3.27;2.93;;;;;;;14.87;66.01;97721.06;5074802;28;20189;-68
2021/10/07 11:18:33;;;;;;;3.20;3.00;;;;;;;14.80;65.91;97720.38;5074338;28;20180;-68
2021/10/07 11:21:11;;;;;;;3.73;3.30;;;;;;;15.03;65.81;97724.84;5073553;28;20607;-68
2021/10/07 11:23:36;;;;;;;3.20;2.90;;;;;;;15.14;65.96;97722.19;5074508;28;20177;-69
2021/10/07 11:26:03;;;;;;;3.70;3.23;;;;;;;14.72;66.14;97723.34;5074702;28;20680;-68
2021/10/07 11:28:30;;;;;;;4.47;3.47;;;;;;;14.37;68.41;97724.13;5074041;28;20220;-69
2021/10/07 11:31:09;;;;;;;4.37;3.23;;;;;;;14.33;68.94;97717.66;5073980;28;20193;-68
2021/10/07 11:33:35;;;;;;;3.03;2.53;;;;;;;14.44;68.54;97724.00;5074076;28;20844;-68
2021/10/07 11:36:04;;;;;;;3.30;2.63;;;;;;;14.24;68.72;97715.59;5073495;28;20207;-68
2021/10/07 11:38:30;;;;;;;3.30;3.00;;;;;;;14.15;69.03;97710.63;5073856;28;20196;-68
2021/10/07 11:40:57;;;;;;;3.10;2.83;;;;;;;13.67;70.28;97716.00;5074546;28;20209;-70